sensor_id;sensor_type;location;lat;lon;timestamp;P1;durP1;ratioP1;P2;durP2;ratioP2
61015;SDS011;46902;52.920;6.536;2023-09-12T00:00:53;29.35;;;26.35;;
61015;SDS011;46902;52.920;6.536;2023-09-12T00:03:19;29.83;;;26.38;;
61015;SDS011;46902;52.920;6.536;2023-09-12T00:05:55;30.08;;;26.75;;
61015;SDS011;46902;52.920;6.536;2023-09-12T00:08:22;29.92;;;26.75;;
61015;SDS011;46902;52.920;6.536;2023-09-12T00:11:07;29.70;;;26.10;;
61015;SDS011;46902;52.920;6.536;2023-09-12T00:13:37;29.08;;;26.00;;
61015;SDS011;46902;52.920;6.536;2023-09-12T00:16:04;28.60;;;24.77;;
61015;SDS011;46902;52.920;6.536;2023-09-12T00:18:30;30.42;;;26.33;;
61015;SDS011;46902;52.920;6.536;2023-09-12T00:20:56;29.83;;;26.65;;
61015;SDS011;46902;52.920;6.536;2023-09-12T00:23:24;32.35;;;26.38;;
61015;SDS011;46902;52.920;6.536;2023-09-12T00:25:50;31.42;;;27.27;;
61015;SDS011;46902;52.920;6.536;2023-09-12T00:28:17;27.50;;;24.27;;
61015;SDS011;46902;52.920;6.536;2023-09-12T00:30:43;33.45;;;26.85;;
61015;SDS011;46902;52.920;6.536;2023-09-12T00:33:08;28.90;;;25.88;;
61015;SDS011;46902;52.920;6.536;2023-09-12T00:35:35;33.78;;;27.55;;
61015;SDS011;46902;52.920;6.536;2023-09-12T00:38:01;31.00;;;27.40;;
61015;SDS011;46902;52.920;6.536;2023-09-12T00:40:26;29.95;;;26.65;;
61015;SDS011;46902;52.920;6.536;2023-09-12T00:42:52;29.58;;;26.23;;
61015;SDS011;46902;52.920;6.536;2023-09-12T00:45:17;29.77;;;26.63;;
61015;SDS011;46902;52.920;6.536;2023-09-12T00:47:43;31.52;;;26.77;;
61015;SDS011;46902;52.920;6.536;2023-09-12T00:50:09;30.88;;;27.58;;
61015;SDS011;46902;52.920;6.536;2023-09-12T00:52:36;30.05;;;26.83;;
61015;SDS011;46902;52.920;6.536;2023-09-12T00:55:03;31.17;;;27.92;;
61015;SDS011;46902;52.920;6.536;2023-09-12T00:57:30;31.70;;;26.73;;
61015;SDS011;46902;52.920;6.536;2023-09-12T00:59:58;30.65;;;27.00;;
61015;SDS011;46902;52.920;6.536;2023-09-12T01:02:24;34.20;;;30.00;;
61015;SDS011;46902;52.920;6.536;2023-09-12T01:04:49;33.03;;;28.90;;
61015;SDS011;46902;52.920;6.536;2023-09-12T01:07:15;33.38;;;29.98;;
61015;SDS011;46902;52.920;6.536;2023-09-12T01:09:41;34.10;;;30.48;;
61015;SDS011;46902;52.920;6.536;2023-09-12T01:12:07;32.25;;;28.50;;
61015;SDS011;46902;52.920;6.536;2023-09-12T01:14:33;30.88;;;27.55;;
61015;SDS011;46902;52.920;6.536;2023-09-12T01:16:59;35.47;;;30.80;;
61015;SDS011;46902;52.920;6.536;2023-09-12T01:19:26;37.85;;;30.27;;
61015;SDS011;46902;52.920;6.536;2023-09-12T01:27:18;34.47;;;30.80;;
61015;SDS011;46902;52.920;6.536;2023-09-12T01:30:00;31.13;;;27.85;;
61015;SDS011;46902;52.920;6.536;2023-09-12T01:32:29;34.13;;;30.17;;
61015;SDS011;46902;52.920;6.536;2023-09-12T01:34:56;33.97;;;29.70;;
61015;SDS011;46902;52.920;6.536;2023-09-12T01:37:22;35.75;;;30.48;;
61015;SDS011;46902;52.920;6.536;2023-09-12T01:39:47;36.00;;;30.00;;
61015;SDS011;46902;52.920;6.536;2023-09-12T01:42:14;34.22;;;29.27;;
61015;SDS011;46902;52.920;6.536;2023-09-12T01:44:43;35.53;;;31.23;;
61015;SDS011;46902;52.920;6.536;2023-09-12T01:47:09;27.73;;;24.92;;
61015;SDS011;46902;52.920;6.536;2023-09-12T01:49:36;25.90;;;23.17;;
61015;SDS011;46902;52.920;6.536;2023-09-12T01:52:05;30.02;;;26.67;;
61015;SDS011;46902;52.920;6.536;2023-09-12T01:54:31;30.10;;;26.35;;
61015;SDS011;46902;52.920;6.536;2023-09-12T01:56:58;28.85;;;25.77;;
61015;SDS011;46902;52.920;6.536;2023-09-12T01:59:25;31.00;;;27.10;;
61015;SDS011;46902;52.920;6.536;2023-09-12T02:01:51;39.88;;;29.58;;
61015;SDS011;46902;52.920;6.536;2023-09-12T02:04:17;32.10;;;28.27;;
61015;SDS011;46902;52.920;6.536;2023-09-12T02:06:42;29.38;;;26.33;;
61015;SDS011;46902;52.920;6.536;2023-09-12T02:09:08;32.45;;;29.13;;
61015;SDS011;46902;52.920;6.536;2023-09-12T02:11:33;33.05;;;29.55;;
61015;SDS011;46902;52.920;6.536;2023-09-12T02:13:59;32.05;;;28.65;;
61015;SDS011;46902;52.920;6.536;2023-09-12T02:16:25;30.20;;;26.77;;
61015;SDS011;46902;52.920;6.536;2023-09-12T02:18:50;36.08;;;31.98;;
61015;SDS011;46902;52.920;6.536;2023-09-12T02:21:16;35.05;;;30.05;;
61015;SDS011;46902;52.920;6.536;2023-09-12T02:23:42;35.03;;;28.95;;
61015;SDS011;46902;52.920;6.536;2023-09-12T02:26:07;38.70;;;30.30;;
61015;SDS011;46902;52.920;6.536;2023-09-12T02:28:33;34.80;;;29.48;;
61015;SDS011;46902;52.920;6.536;2023-09-12T02:30:58;35.05;;;30.38;;
61015;SDS011;46902;52.920;6.536;2023-09-12T02:33:24;41.50;;;31.05;;
61015;SDS011;46902;52.920;6.536;2023-09-12T02:35:50;35.83;;;30.35;;
61015;SDS011;46902;52.920;6.536;2023-09-12T02:38:16;41.38;;;33.70;;
61015;SDS011;46902;52.920;6.536;2023-09-12T02:40:42;36.75;;;31.55;;
61015;SDS011;46902;52.920;6.536;2023-09-12T02:43:08;33.45;;;29.20;;
61015;SDS011;46902;52.920;6.536;2023-09-12T02:45:33;37.08;;;32.05;;
61015;SDS011;46902;52.920;6.536;2023-09-12T02:47:59;38.20;;;31.92;;
61015;SDS011;46902;52.920;6.536;2023-09-12T02:50:24;36.85;;;31.20;;
61015;SDS011;46902;52.920;6.536;2023-09-12T02:52:50;36.22;;;32.30;;
61015;SDS011;46902;52.920;6.536;2023-09-12T02:55:16;34.67;;;30.17;;
61015;SDS011;46902;52.920;6.536;2023-09-12T02:57:41;33.22;;;28.88;;
61015;SDS011;46902;52.920;6.536;2023-09-12T03:00:07;32.58;;;29.10;;
61015;SDS011;46902;52.920;6.536;2023-09-12T03:02:34;39.67;;;31.73;;
61015;SDS011;46902;52.920;6.536;2023-09-12T03:04:59;42.53;;;31.55;;
61015;SDS011;46902;52.920;6.536;2023-09-12T03:07:26;34.40;;;30.00;;
61015;SDS011;46902;52.920;6.536;2023-09-12T03:09:52;40.08;;;32.75;;
61015;SDS011;46902;52.920;6.536;2023-09-12T03:12:17;35.35;;;30.55;;
61015;SDS011;46902;52.920;6.536;2023-09-12T03:14:43;34.70;;;30.90;;
61015;SDS011;46902;52.920;6.536;2023-09-12T03:17:09;36.75;;;31.35;;
61015;SDS011;46902;52.920;6.536;2023-09-12T03:19:34;42.65;;;33.25;;
61015;SDS011;46902;52.920;6.536;2023-09-12T03:22:00;37.40;;;31.35;;
61015;SDS011;46902;52.920;6.536;2023-09-12T03:24:25;39.53;;;33.22;;
61015;SDS011;46902;52.920;6.536;2023-09-12T03:26:53;41.80;;;32.60;;
61015;SDS011;46902;52.920;6.536;2023-09-12T03:29:19;99.40;;;33.85;;
61015;SDS011;46902;52.920;6.536;2023-09-12T03:31:45;48.63;;;33.10;;
61015;SDS011;46902;52.920;6.536;2023-09-12T03:34:10;82.78;;;32.08;;
61015;SDS011;46902;52.920;6.536;2023-09-12T03:36:36;55.33;;;34.35;;
61015;SDS011;46902;52.920;6.536;2023-09-12T03:39:01;195.57;;;36.92;;
61015;SDS011;46902;52.920;6.536;2023-09-12T03:41:30;171.82;;;33.63;;
61015;SDS011;46902;52.920;6.536;2023-09-12T03:43:56;144.13;;;34.17;;
61015;SDS011;46902;52.920;6.536;2023-09-12T03:46:21;129.40;;;34.05;;
61015;SDS011;46902;52.920;6.536;2023-09-12T03:48:47;56.20;;;30.08;;
61015;SDS011;46902;52.920;6.536;2023-09-12T03:51:13;36.28;;;30.45;;
61015;SDS011;46902;52.920;6.536;2023-09-12T03:53:39;83.43;;;32.97;;
61015;SDS011;46902;52.920;6.536;2023-09-12T03:56:05;56.28;;;32.72;;
61015;SDS011;46902;52.920;6.536;2023-09-12T03:58:31;50.88;;;32.80;;
61015;SDS011;46902;52.920;6.536;2023-09-12T04:00:56;51.42;;;32.90;;
61015;SDS011;46902;52.920;6.536;2023-09-12T04:03:22;112.25;;;35.95;;
61015;SDS011;46902;52.920;6.536;2023-09-12T04:05:50;119.72;;;34.17;;
61015;SDS011;46902;52.920;6.536;2023-09-12T04:08:15;45.30;;;31.08;;
61015;SDS011;46902;52.920;6.536;2023-09-12T04:10:42;144.82;;;31.70;;
61015;SDS011;46902;52.920;6.536;2023-09-12T04:13:08;86.72;;;31.85;;
61015;SDS011;46902;52.920;6.536;2023-09-12T04:15:33;125.03;;;33.88;;
61015;SDS011;46902;52.920;6.536;2023-09-12T04:17:59;243.90;;;39.80;;
61015;SDS011;46902;52.920;6.536;2023-09-12T04:20:24;195.73;;;35.95;;
61015;SDS011;46902;52.920;6.536;2023-09-12T04:22:50;172.52;;;34.55;;
61015;SDS011;46902;52.920;6.536;2023-09-12T04:25:16;91.22;;;29.52;;
61015;SDS011;46902;52.920;6.536;2023-09-12T04:27:44;241.70;;;35.58;;
61015;SDS011;46902;52.920;6.536;2023-09-12T04:30:11;196.05;;;33.72;;
61015;SDS011;46902;52.920;6.536;2023-09-12T04:32:36;70.75;;;29.90;;
61015;SDS011;46902;52.920;6.536;2023-09-12T04:35:02;149.05;;;31.63;;
61015;SDS011;46902;52.920;6.536;2023-09-12T04:37:28;158.82;;;30.80;;
61015;SDS011;46902;52.920;6.536;2023-09-12T04:39:54;187.77;;;30.42;;
61015;SDS011;46902;52.920;6.536;2023-09-12T04:42:20;96.13;;;29.35;;
61015;SDS011;46902;52.920;6.536;2023-09-12T04:44:45;131.15;;;32.30;;
61015;SDS011;46902;52.920;6.536;2023-09-12T04:47:11;116.00;;;30.85;;
61015;SDS011;46902;52.920;6.536;2023-09-12T04:49:37;114.63;;;31.40;;
61015;SDS011;46902;52.920;6.536;2023-09-12T04:52:04;145.15;;;33.85;;
61015;SDS011;46902;52.920;6.536;2023-09-12T04:54:30;111.32;;;31.23;;
61015;SDS011;46902;52.920;6.536;2023-09-12T04:56:55;91.45;;;31.70;;
61015;SDS011;46902;52.920;6.536;2023-09-12T04:59:21;80.93;;;32.03;;
61015;SDS011;46902;52.920;6.536;2023-09-12T05:01:46;89.88;;;34.47;;
61015;SDS011;46902;52.920;6.536;2023-09-12T05:04:12;107.90;;;34.20;;
61015;SDS011;46902;52.920;6.536;2023-09-12T05:06:37;83.93;;;32.58;;
61015;SDS011;46902;52.920;6.536;2023-09-12T05:09:05;158.48;;;35.22;;
61015;SDS011;46902;52.920;6.536;2023-09-12T05:11:31;55.60;;;30.42;;
61015;SDS011;46902;52.920;6.536;2023-09-12T05:13:56;88.53;;;33.50;;
61015;SDS011;46902;52.920;6.536;2023-09-12T05:16:22;93.80;;;31.42;;
61015;SDS011;46902;52.920;6.536;2023-09-12T05:18:48;62.13;;;30.95;;
61015;SDS011;46902;52.920;6.536;2023-09-12T05:21:14;61.00;;;29.67;;
61015;SDS011;46902;52.920;6.536;2023-09-12T05:23:40;62.97;;;33.40;;
61015;SDS011;46902;52.920;6.536;2023-09-12T05:26:06;72.68;;;33.28;;
61015;SDS011;46902;52.920;6.536;2023-09-12T05:28:33;69.10;;;30.85;;
61015;SDS011;46902;52.920;6.536;2023-09-12T05:30:59;105.65;;;35.22;;
61015;SDS011;46902;52.920;6.536;2023-09-12T05:33:25;68.63;;;35.35;;
61015;SDS011;46902;52.920;6.536;2023-09-12T05:35:50;143.27;;;38.20;;
61015;SDS011;46902;52.920;6.536;2023-09-12T05:38:16;48.78;;;32.55;;
61015;SDS011;46902;52.920;6.536;2023-09-12T05:40:41;82.35;;;35.40;;
61015;SDS011;46902;52.920;6.536;2023-09-12T05:43:07;116.00;;;38.50;;
61015;SDS011;46902;52.920;6.536;2023-09-12T05:45:32;76.97;;;36.10;;
61015;SDS011;46902;52.920;6.536;2023-09-12T05:48:01;46.17;;;31.17;;
61015;SDS011;46902;52.920;6.536;2023-09-12T05:50:28;61.33;;;34.10;;
61015;SDS011;46902;52.920;6.536;2023-09-12T05:52:53;65.57;;;34.75;;
61015;SDS011;46902;52.920;6.536;2023-09-12T05:55:19;137.50;;;37.63;;
61015;SDS011;46902;52.920;6.536;2023-09-12T05:57:45;68.93;;;32.22;;
61015;SDS011;46902;52.920;6.536;2023-09-12T06:00:12;51.47;;;33.40;;
61015;SDS011;46902;52.920;6.536;2023-09-12T06:02:40;80.85;;;31.95;;
61015;SDS011;46902;52.920;6.536;2023-09-12T06:05:07;115.95;;;31.63;;
61015;SDS011;46902;52.920;6.536;2023-09-12T06:07:33;68.32;;;29.92;;
61015;SDS011;46902;52.920;6.536;2023-09-12T06:09:59;45.45;;;30.95;;
61015;SDS011;46902;52.920;6.536;2023-09-12T06:12:25;82.78;;;32.55;;
61015;SDS011;46902;52.920;6.536;2023-09-12T06:14:51;44.42;;;30.60;;
61015;SDS011;46902;52.920;6.536;2023-09-12T06:17:18;83.82;;;35.15;;
61015;SDS011;46902;52.920;6.536;2023-09-12T06:19:43;57.35;;;34.95;;
61015;SDS011;46902;52.920;6.536;2023-09-12T06:22:09;62.83;;;33.72;;
61015;SDS011;46902;52.920;6.536;2023-09-12T06:24:35;60.60;;;34.78;;
61015;SDS011;46902;52.920;6.536;2023-09-12T06:27:00;63.90;;;36.83;;
61015;SDS011;46902;52.920;6.536;2023-09-12T06:29:26;42.15;;;34.42;;
61015;SDS011;46902;52.920;6.536;2023-09-12T06:31:51;44.80;;;35.70;;
61015;SDS011;46902;52.920;6.536;2023-09-12T06:34:17;43.97;;;33.58;;
61015;SDS011;46902;52.920;6.536;2023-09-12T06:36:42;46.17;;;36.72;;
61015;SDS011;46902;52.920;6.536;2023-09-12T06:39:10;42.55;;;36.03;;
61015;SDS011;46902;52.920;6.536;2023-09-12T06:41:35;61.10;;;36.97;;
61015;SDS011;46902;52.920;6.536;2023-09-12T06:44:01;43.83;;;34.75;;
61015;SDS011;46902;52.920;6.536;2023-09-12T06:46:29;45.65;;;35.75;;
61015;SDS011;46902;52.920;6.536;2023-09-12T06:48:54;54.05;;;34.75;;
61015;SDS011;46902;52.920;6.536;2023-09-12T06:51:23;103.22;;;41.72;;
61015;SDS011;46902;52.920;6.536;2023-09-12T06:53:50;56.97;;;39.63;;
61015;SDS011;46902;52.920;6.536;2023-09-12T06:56:16;45.25;;;36.05;;
61015;SDS011;46902;52.920;6.536;2023-09-12T06:58:42;50.38;;;36.70;;
61015;SDS011;46902;52.920;6.536;2023-09-12T07:01:07;53.80;;;39.75;;
61015;SDS011;46902;52.920;6.536;2023-09-12T07:03:33;45.85;;;37.90;;
61015;SDS011;46902;52.920;6.536;2023-09-12T07:06:00;52.75;;;39.75;;
61015;SDS011;46902;52.920;6.536;2023-09-12T07:08:26;46.30;;;35.88;;
61015;SDS011;46902;52.920;6.536;2023-09-12T07:10:54;44.97;;;35.75;;
61015;SDS011;46902;52.920;6.536;2023-09-12T07:13:21;48.15;;;36.38;;
61015;SDS011;46902;52.920;6.536;2023-09-12T07:15:49;51.95;;;38.08;;
61015;SDS011;46902;52.920;6.536;2023-09-12T07:18:15;46.25;;;36.55;;
61015;SDS011;46902;52.920;6.536;2023-09-12T07:20:41;48.03;;;37.08;;
61015;SDS011;46902;52.920;6.536;2023-09-12T07:23:07;48.17;;;38.33;;
61015;SDS011;46902;52.920;6.536;2023-09-12T07:25:39;47.42;;;37.50;;
61015;SDS011;46902;52.920;6.536;2023-09-12T07:28:06;47.90;;;38.00;;
61015;SDS011;46902;52.920;6.536;2023-09-12T07:30:32;51.80;;;38.65;;
61015;SDS011;46902;52.920;6.536;2023-09-12T07:32:57;49.67;;;39.63;;
61015;SDS011;46902;52.920;6.536;2023-09-12T07:35:23;56.17;;;41.47;;
61015;SDS011;46902;52.920;6.536;2023-09-12T07:37:49;52.28;;;40.83;;
61015;SDS011;46902;52.920;6.536;2023-09-12T07:40:15;54.85;;;42.03;;
61015;SDS011;46902;52.920;6.536;2023-09-12T07:42:41;48.25;;;38.45;;
61015;SDS011;46902;52.920;6.536;2023-09-12T07:45:07;53.60;;;40.25;;
61015;SDS011;46902;52.920;6.536;2023-09-12T07:47:33;56.35;;;41.25;;
61015;SDS011;46902;52.920;6.536;2023-09-12T07:49:59;54.95;;;42.03;;
61015;SDS011;46902;52.920;6.536;2023-09-12T07:52:25;47.53;;;39.85;;
61015;SDS011;46902;52.920;6.536;2023-09-12T07:54:52;49.63;;;39.47;;
61015;SDS011;46902;52.920;6.536;2023-09-12T07:57:22;50.53;;;40.03;;
61015;SDS011;46902;52.920;6.536;2023-09-12T07:59:48;51.78;;;39.20;;
61015;SDS011;46902;52.920;6.536;2023-09-12T08:02:13;54.70;;;41.83;;
61015;SDS011;46902;52.920;6.536;2023-09-12T08:04:39;52.53;;;42.53;;
61015;SDS011;46902;52.920;6.536;2023-09-12T08:07:05;50.08;;;39.60;;
61015;SDS011;46902;52.920;6.536;2023-09-12T08:09:50;44.40;;;36.00;;
61015;SDS011;46902;52.920;6.536;2023-09-12T08:12:17;35.55;;;31.17;;
61015;SDS011;46902;52.920;6.536;2023-09-12T08:14:44;40.83;;;33.95;;
61015;SDS011;46902;52.920;6.536;2023-09-12T08:17:10;37.60;;;31.70;;
61015;SDS011;46902;52.920;6.536;2023-09-12T08:19:36;44.47;;;36.35;;
61015;SDS011;46902;52.920;6.536;2023-09-12T08:22:02;41.10;;;33.42;;
61015;SDS011;46902;52.920;6.536;2023-09-12T08:24:27;38.95;;;32.70;;
61015;SDS011;46902;52.920;6.536;2023-09-12T08:26:53;40.63;;;34.33;;
61015;SDS011;46902;52.920;6.536;2023-09-12T08:29:19;35.63;;;30.23;;
61015;SDS011;46902;52.920;6.536;2023-09-12T08:31:45;42.60;;;34.05;;
61015;SDS011;46902;52.920;6.536;2023-09-12T08:34:12;34.50;;;29.75;;
61015;SDS011;46902;52.920;6.536;2023-09-12T08:36:38;40.03;;;33.78;;
61015;SDS011;46902;52.920;6.536;2023-09-12T08:39:04;40.85;;;34.63;;
61015;SDS011;46902;52.920;6.536;2023-09-12T08:41:32;43.72;;;35.65;;
61015;SDS011;46902;52.920;6.536;2023-09-12T08:43:58;37.08;;;32.20;;
61015;SDS011;46902;52.920;6.536;2023-09-12T08:46:25;38.08;;;31.00;;
61015;SDS011;46902;52.920;6.536;2023-09-12T08:48:51;46.58;;;37.20;;
61015;SDS011;46902;52.920;6.536;2023-09-12T08:51:20;41.97;;;34.35;;
61015;SDS011;46902;52.920;6.536;2023-09-12T08:53:48;38.47;;;31.83;;
61015;SDS011;46902;52.920;6.536;2023-09-12T08:56:15;39.67;;;34.58;;
61015;SDS011;46902;52.920;6.536;2023-09-12T08:58:41;43.50;;;34.15;;
61015;SDS011;46902;52.920;6.536;2023-09-12T09:01:08;40.70;;;34.13;;
61015;SDS011;46902;52.920;6.536;2023-09-12T09:03:37;47.80;;;37.85;;
61015;SDS011;46902;52.920;6.536;2023-09-12T09:06:03;43.53;;;35.85;;
61015;SDS011;46902;52.920;6.536;2023-09-12T09:08:30;40.30;;;34.15;;
61015;SDS011;46902;52.920;6.536;2023-09-12T09:11:00;42.28;;;35.80;;
61015;SDS011;46902;52.920;6.536;2023-09-12T09:13:31;42.67;;;35.17;;
61015;SDS011;46902;52.920;6.536;2023-09-12T09:21:21;42.33;;;35.47;;
61015;SDS011;46902;52.920;6.536;2023-09-12T09:23:51;46.28;;;36.85;;
61015;SDS011;46902;52.920;6.536;2023-09-12T09:26:18;38.15;;;31.75;;
61015;SDS011;46902;52.920;6.536;2023-09-12T09:28:44;41.42;;;35.08;;
61015;SDS011;46902;52.920;6.536;2023-09-12T09:31:13;40.45;;;33.95;;
61015;SDS011;46902;52.920;6.536;2023-09-12T09:33:39;42.10;;;35.97;;
61015;SDS011;46902;52.920;6.536;2023-09-12T09:36:06;44.17;;;34.80;;
61015;SDS011;46902;52.920;6.536;2023-09-12T09:38:35;45.30;;;36.63;;
61015;SDS011;46902;52.920;6.536;2023-09-12T09:41:05;48.85;;;38.17;;
61015;SDS011;46902;52.920;6.536;2023-09-12T09:43:31;43.20;;;36.83;;
61015;SDS011;46902;52.920;6.536;2023-09-12T09:45:57;39.70;;;33.70;;
61015;SDS011;46902;52.920;6.536;2023-09-12T09:48:24;36.13;;;31.48;;
61015;SDS011;46902;52.920;6.536;2023-09-12T09:50:53;43.47;;;36.88;;
61015;SDS011;46902;52.920;6.536;2023-09-12T09:53:26;39.20;;;32.78;;
61015;SDS011;46902;52.920;6.536;2023-09-12T09:55:52;37.10;;;33.08;;
61015;SDS011;46902;52.920;6.536;2023-09-12T09:58:31;39.63;;;33.40;;
61015;SDS011;46902;52.920;6.536;2023-09-12T10:00:57;38.75;;;32.17;;
61015;SDS011;46902;52.920;6.536;2023-09-12T10:03:23;36.67;;;31.58;;
61015;SDS011;46902;52.920;6.536;2023-09-12T10:05:50;36.95;;;31.60;;
61015;SDS011;46902;52.920;6.536;2023-09-12T10:08:18;40.33;;;31.63;;
61015;SDS011;46902;52.920;6.536;2023-09-12T10:10:45;32.83;;;28.20;;
61015;SDS011;46902;52.920;6.536;2023-09-12T10:13:12;36.20;;;30.30;;
61015;SDS011;46902;52.920;6.536;2023-09-12T10:15:39;36.88;;;30.42;;
61015;SDS011;46902;52.920;6.536;2023-09-12T10:18:09;33.75;;;30.05;;
61015;SDS011;46902;52.920;6.536;2023-09-12T10:20:44;35.53;;;29.77;;
61015;SDS011;46902;52.920;6.536;2023-09-12T10:23:18;36.28;;;30.23;;
61015;SDS011;46902;52.920;6.536;2023-09-12T10:25:50;32.08;;;28.60;;
61015;SDS011;46902;52.920;6.536;2023-09-12T10:28:16;39.78;;;30.23;;
61015;SDS011;46902;52.920;6.536;2023-09-12T10:30:43;31.50;;;26.85;;
61015;SDS011;46902;52.920;6.536;2023-09-12T10:33:09;31.52;;;26.85;;
61015;SDS011;46902;52.920;6.536;2023-09-12T10:35:38;33.03;;;27.23;;
61015;SDS011;46902;52.920;6.536;2023-09-12T10:38:04;32.85;;;28.08;;
61015;SDS011;46902;52.920;6.536;2023-09-12T10:40:33;32.72;;;29.10;;
61015;SDS011;46902;52.920;6.536;2023-09-12T10:43:01;32.80;;;28.90;;
61015;SDS011;46902;52.920;6.536;2023-09-12T10:45:31;34.33;;;27.02;;
61015;SDS011;46902;52.920;6.536;2023-09-12T10:47:58;31.05;;;26.15;;
61015;SDS011;46902;52.920;6.536;2023-09-12T10:50:23;29.38;;;25.83;;
61015;SDS011;46902;52.920;6.536;2023-09-12T10:52:49;31.45;;;25.55;;
61015;SDS011;46902;52.920;6.536;2023-09-12T10:55:15;25.20;;;22.70;;
61015;SDS011;46902;52.920;6.536;2023-09-12T10:58:04;27.65;;;24.08;;
61015;SDS011;46902;52.920;6.536;2023-09-12T11:00:31;28.77;;;23.85;;
61015;SDS011;46902;52.920;6.536;2023-09-12T11:02:58;27.45;;;23.45;;
61015;SDS011;46902;52.920;6.536;2023-09-12T11:07:57;28.85;;;23.92;;
61015;SDS011;46902;52.920;6.536;2023-09-12T11:10:24;25.05;;;22.08;;
61015;SDS011;46902;52.920;6.536;2023-09-12T11:12:52;28.88;;;23.30;;
61015;SDS011;46902;52.920;6.536;2023-09-12T11:15:19;23.75;;;20.92;;
61015;SDS011;46902;52.920;6.536;2023-09-12T11:17:47;29.88;;;23.00;;
61015;SDS011;46902;52.920;6.536;2023-09-12T11:20:15;29.45;;;22.73;;
61015;SDS011;46902;52.920;6.536;2023-09-12T11:22:45;23.88;;;20.70;;
61015;SDS011;46902;52.920;6.536;2023-09-12T11:30:20;21.33;;;18.05;;
61015;SDS011;46902;52.920;6.536;2023-09-12T11:32:47;26.33;;;20.23;;
61015;SDS011;46902;52.920;6.536;2023-09-12T11:35:15;21.23;;;18.77;;
61015;SDS011;46902;52.920;6.536;2023-09-12T11:37:48;23.02;;;18.35;;
61015;SDS011;46902;52.920;6.536;2023-09-12T11:42:42;18.73;;;14.65;;
61015;SDS011;46902;52.920;6.536;2023-09-12T11:45:09;18.30;;;14.27;;
61015;SDS011;46902;52.920;6.536;2023-09-12T11:47:42;17.83;;;15.35;;
61015;SDS011;46902;52.920;6.536;2023-09-12T11:50:09;18.15;;;16.10;;
61015;SDS011;46902;52.920;6.536;2023-09-12T11:53:06;20.67;;;17.20;;
61015;SDS011;46902;52.920;6.536;2023-09-12T11:55:37;18.17;;;14.95;;
61015;SDS011;46902;52.920;6.536;2023-09-12T11:58:08;17.17;;;13.10;;
61015;SDS011;46902;52.920;6.536;2023-09-12T12:00:36;23.20;;;15.65;;
61015;SDS011;46902;52.920;6.536;2023-09-12T12:03:02;18.33;;;14.73;;
61015;SDS011;46902;52.920;6.536;2023-09-12T12:05:29;15.23;;;12.70;;
61015;SDS011;46902;52.920;6.536;2023-09-12T12:07:55;12.65;;;9.45;;
61015;SDS011;46902;52.920;6.536;2023-09-12T12:10:20;13.82;;;11.95;;
61015;SDS011;46902;52.920;6.536;2023-09-12T12:12:52;16.17;;;13.18;;
61015;SDS011;46902;52.920;6.536;2023-09-12T12:15:18;14.75;;;13.05;;
61015;SDS011;46902;52.920;6.536;2023-09-12T12:17:43;17.13;;;13.40;;
61015;SDS011;46902;52.920;6.536;2023-09-12T12:20:09;15.65;;;13.15;;
61015;SDS011;46902;52.920;6.536;2023-09-12T12:22:37;15.60;;;13.60;;
61015;SDS011;46902;52.920;6.536;2023-09-12T12:25:07;18.45;;;12.10;;
61015;SDS011;46902;52.920;6.536;2023-09-12T12:27:37;21.70;;;13.13;;
61015;SDS011;46902;52.920;6.536;2023-09-12T12:30:05;16.42;;;12.48;;
61015;SDS011;46902;52.920;6.536;2023-09-12T12:32:41;23.67;;;15.43;;
61015;SDS011;46902;52.920;6.536;2023-09-12T12:35:08;23.02;;;14.63;;
61015;SDS011;46902;52.920;6.536;2023-09-12T12:37:35;21.88;;;16.35;;
61015;SDS011;46902;52.920;6.536;2023-09-12T12:40:02;27.90;;;19.95;;
61015;SDS011;46902;52.920;6.536;2023-09-12T12:42:37;29.77;;;20.67;;
61015;SDS011;46902;52.920;6.536;2023-09-12T12:45:11;27.15;;;19.58;;
61015;SDS011;46902;52.920;6.536;2023-09-12T12:47:37;19.52;;;14.43;;
61015;SDS011;46902;52.920;6.536;2023-09-12T12:50:02;17.17;;;13.00;;
61015;SDS011;46902;52.920;6.536;2023-09-12T12:52:33;13.48;;;10.25;;
61015;SDS011;46902;52.920;6.536;2023-09-12T12:55:06;14.13;;;10.82;;
61015;SDS011;46902;52.920;6.536;2023-09-12T12:57:35;11.35;;;9.05;;
61015;SDS011;46902;52.920;6.536;2023-09-12T13:00:08;11.85;;;8.43;;
61015;SDS011;46902;52.920;6.536;2023-09-12T13:02:38;14.13;;;8.98;;
61015;SDS011;46902;52.920;6.536;2023-09-12T13:05:06;13.18;;;9.48;;
61015;SDS011;46902;52.920;6.536;2023-09-12T13:07:43;13.85;;;10.80;;
61015;SDS011;46902;52.920;6.536;2023-09-12T13:10:09;14.30;;;10.68;;
61015;SDS011;46902;52.920;6.536;2023-09-12T13:12:35;15.52;;;10.57;;
61015;SDS011;46902;52.920;6.536;2023-09-12T13:15:01;14.05;;;11.52;;
61015;SDS011;46902;52.920;6.536;2023-09-12T13:17:26;14.15;;;9.85;;
61015;SDS011;46902;52.920;6.536;2023-09-12T13:19:52;12.57;;;9.88;;
61015;SDS011;46902;52.920;6.536;2023-09-12T13:22:18;15.07;;;11.60;;
61015;SDS011;46902;52.920;6.536;2023-09-12T13:24:43;14.15;;;11.35;;
61015;SDS011;46902;52.920;6.536;2023-09-12T13:27:09;15.00;;;12.25;;
61015;SDS011;46902;52.920;6.536;2023-09-12T13:29:34;17.02;;;13.38;;
61015;SDS011;46902;52.920;6.536;2023-09-12T13:32:00;18.48;;;15.05;;
61015;SDS011;46902;52.920;6.536;2023-09-12T13:34:25;19.45;;;16.23;;
61015;SDS011;46902;52.920;6.536;2023-09-12T13:36:51;22.27;;;16.13;;
61015;SDS011;46902;52.920;6.536;2023-09-12T13:39:17;20.63;;;16.38;;
61015;SDS011;46902;52.920;6.536;2023-09-12T13:41:42;19.48;;;14.77;;
61015;SDS011;46902;52.920;6.536;2023-09-12T13:44:09;17.20;;;14.73;;
61015;SDS011;46902;52.920;6.536;2023-09-12T13:46:36;17.75;;;13.25;;
61015;SDS011;46902;52.920;6.536;2023-09-12T13:49:01;13.43;;;11.32;;
61015;SDS011;46902;52.920;6.536;2023-09-12T13:51:28;10.23;;;7.50;;
61015;SDS011;46902;52.920;6.536;2023-09-12T13:53:54;11.38;;;8.15;;
61015;SDS011;46902;52.920;6.536;2023-09-12T13:56:20;9.13;;;6.38;;
61015;SDS011;46902;52.920;6.536;2023-09-12T13:58:45;9.90;;;4.88;;
61015;SDS011;46902;52.920;6.536;2023-09-12T14:01:11;8.00;;;4.82;;
61015;SDS011;46902;52.920;6.536;2023-09-12T14:03:37;7.97;;;4.55;;
61015;SDS011;46902;52.920;6.536;2023-09-12T14:06:03;7.97;;;4.65;;
61015;SDS011;46902;52.920;6.536;2023-09-12T14:08:28;9.68;;;4.55;;
61015;SDS011;46902;52.920;6.536;2023-09-12T14:10:54;7.45;;;4.45;;
61015;SDS011;46902;52.920;6.536;2023-09-12T14:13:20;9.52;;;6.15;;
61015;SDS011;46902;52.920;6.536;2023-09-12T14:15:45;11.20;;;5.85;;
61015;SDS011;46902;52.920;6.536;2023-09-12T14:18:11;8.98;;;6.32;;
61015;SDS011;46902;52.920;6.536;2023-09-12T14:20:37;9.43;;;6.68;;
61015;SDS011;46902;52.920;6.536;2023-09-12T14:23:03;11.35;;;6.63;;
61015;SDS011;46902;52.920;6.536;2023-09-12T14:25:29;8.93;;;6.10;;
61015;SDS011;46902;52.920;6.536;2023-09-12T14:27:54;8.95;;;5.82;;
61015;SDS011;46902;52.920;6.536;2023-09-12T14:30:20;8.82;;;5.47;;
61015;SDS011;46902;52.920;6.536;2023-09-12T14:32:47;13.18;;;6.50;;
61015;SDS011;46902;52.920;6.536;2023-09-12T14:35:13;13.38;;;7.90;;
61015;SDS011;46902;52.920;6.536;2023-09-12T14:37:38;10.80;;;7.57;;
61015;SDS011;46902;52.920;6.536;2023-09-12T14:40:04;9.98;;;7.88;;